sensor_id;sensor_type;location;lat;lon;timestamp;temperature;humidity
60455;DHT22;54989;53.398;6.564;2022-08-23T00:01:23;23.50;66.20
60455;DHT22;54989;53.398;6.564;2022-08-23T00:03:57;23.50;66.20
60455;DHT22;54989;53.398;6.564;2022-08-23T00:06:26;23.50;66.20
60455;DHT22;54989;53.398;6.564;2022-08-23T00:08:54;23.50;66.20
60455;DHT22;54989;53.398;6.564;2022-08-23T00:14:14;23.50;66.20
60455;DHT22;54989;53.398;6.564;2022-08-23T00:16:42;23.50;66.20
60455;DHT22;54989;53.398;6.564;2022-08-23T00:19:12;23.40;66.20
60455;DHT22;54989;53.398;6.564;2022-08-23T00:21:42;23.40;66.20
60455;DHT22;54989;53.398;6.564;2022-08-23T00:24:12;23.50;66.20
60455;DHT22;54989;53.398;6.564;2022-08-23T00:26:58;23.40;66.20
60455;DHT22;54989;53.398;6.564;2022-08-23T00:29:38;23.40;66.10
60455;DHT22;54989;53.398;6.564;2022-08-23T00:32:08;23.40;66.10
60455;DHT22;54989;53.398;6.564;2022-08-23T00:34:36;23.40;66.10
60455;DHT22;54989;53.398;6.564;2022-08-23T00:37:04;23.40;66.10
60455;DHT22;54989;53.398;6.564;2022-08-23T00:39:32;23.40;66.10
60455;DHT22;54989;53.398;6.564;2022-08-23T00:42:12;23.40;66.20
60455;DHT22;54989;53.398;6.564;2022-08-23T00:45:00;23.40;66.20
60455;DHT22;54989;53.398;6.564;2022-08-23T00:47:49;23.40;66.20
60455;DHT22;54989;53.398;6.564;2022-08-23T00:50:27;23.40;66.20
60455;DHT22;54989;53.398;6.564;2022-08-23T00:55:29;23.40;66.10
60455;DHT22;54989;53.398;6.564;2022-08-23T00:57:57;23.30;66.10
60455;DHT22;54989;53.398;6.564;2022-08-23T01:00:26;23.30;66.10
60455;DHT22;54989;53.398;6.564;2022-08-23T01:02:54;23.30;66.10
60455;DHT22;54989;53.398;6.564;2022-08-23T01:05:25;23.30;66.10
60455;DHT22;54989;53.398;6.564;2022-08-23T01:07:55;23.30;66.10
60455;DHT22;54989;53.398;6.564;2022-08-23T01:10:29;23.30;66.10
60455;DHT22;54989;53.398;6.564;2022-08-23T01:13:11;23.30;66.10
60455;DHT22;54989;53.398;6.564;2022-08-23T01:16:08;23.30;66.00
60455;DHT22;54989;53.398;6.564;2022-08-23T01:18:37;23.30;66.10
60455;DHT22;54989;53.398;6.564;2022-08-23T01:21:16;23.30;66.10
60455;DHT22;54989;53.398;6.564;2022-08-23T01:23:51;23.30;66.10
60455;DHT22;54989;53.398;6.564;2022-08-23T01:26:21;23.20;66.00
60455;DHT22;54989;53.398;6.564;2022-08-23T01:28:51;23.20;66.10
60455;DHT22;54989;53.398;6.564;2022-08-23T01:31:21;23.30;66.10
60455;DHT22;54989;53.398;6.564;2022-08-23T01:34:04;23.30;66.10
60455;DHT22;54989;53.398;6.564;2022-08-23T01:36:34;23.30;66.10
60455;DHT22;54989;53.398;6.564;2022-08-23T01:39:04;23.30;66.10
60455;DHT22;54989;53.398;6.564;2022-08-23T01:41:32;23.30;66.10
60455;DHT22;54989;53.398;6.564;2022-08-23T01:44:00;23.20;66.10
60455;DHT22;54989;53.398;6.564;2022-08-23T01:46:27;23.20;66.10
60455;DHT22;54989;53.398;6.564;2022-08-23T01:48:55;23.20;66.10
60455;DHT22;54989;53.398;6.564;2022-08-23T01:51:28;23.20;66.70
60455;DHT22;54989;53.398;6.564;2022-08-23T01:53:56;23.20;66.10
60455;DHT22;54989;53.398;6.564;2022-08-23T01:56:26;23.20;66.10
60455;DHT22;54989;53.398;6.564;2022-08-23T01:59:09;23.20;66.10
60455;DHT22;54989;53.398;6.564;2022-08-23T02:01:42;23.20;66.10
60455;DHT22;54989;53.398;6.564;2022-08-23T02:04:10;23.20;66.10
60455;DHT22;54989;53.398;6.564;2022-08-23T02:06:38;23.20;66.10
60455;DHT22;54989;53.398;6.564;2022-08-23T02:09:07;23.20;66.10
60455;DHT22;54989;53.398;6.564;2022-08-23T02:11:45;23.20;66.10
60455;DHT22;54989;53.398;6.564;2022-08-23T02:14:16;23.20;66.20
60455;DHT22;54989;53.398;6.564;2022-08-23T02:16:52;23.20;66.10
60455;DHT22;54989;53.398;6.564;2022-08-23T02:19:34;23.10;66.10
60455;DHT22;54989;53.398;6.564;2022-08-23T02:22:04;23.10;66.10
60455;DHT22;54989;53.398;6.564;2022-08-23T02:24:32;23.10;66.10
60455;DHT22;54989;53.398;6.564;2022-08-23T02:27:03;23.10;66.10
60455;DHT22;54989;53.398;6.564;2022-08-23T02:29:36;23.10;66.10
60455;DHT22;54989;53.398;6.564;2022-08-23T02:32:08;23.10;66.10
60455;DHT22;54989;53.398;6.564;2022-08-23T02:34:39;23.10;66.10
60455;DHT22;54989;53.398;6.564;2022-08-23T02:37:09;23.10;66.10
60455;DHT22;54989;53.398;6.564;2022-08-23T02:39:37;23.10;66.10
60455;DHT22;54989;53.398;6.564;2022-08-23T02:42:06;23.10;66.10
60455;DHT22;54989;53.398;6.564;2022-08-23T02:44:39;23.10;66.10
60455;DHT22;54989;53.398;6.564;2022-08-23T02:47:07;23.10;66.10
60455;DHT22;54989;53.398;6.564;2022-08-23T02:49:37;23.10;66.10
60455;DHT22;54989;53.398;6.564;2022-08-23T02:52:06;23.00;66.10
60455;DHT22;54989;53.398;6.564;2022-08-23T02:54:34;23.10;66.10
60455;DHT22;54989;53.398;6.564;2022-08-23T02:57:02;23.10;66.10
60455;DHT22;54989;53.398;6.564;2022-08-23T02:59:30;23.00;66.10
60455;DHT22;54989;53.398;6.564;2022-08-23T03:01:58;23.00;66.10
60455;DHT22;54989;53.398;6.564;2022-08-23T03:04:30;23.10;66.10
60455;DHT22;54989;53.398;6.564;2022-08-23T03:06:58;23.00;66.10
60455;DHT22;54989;53.398;6.564;2022-08-23T03:09:26;23.00;66.10
60455;DHT22;54989;53.398;6.564;2022-08-23T03:11:54;23.00;66.80
60455;DHT22;54989;53.398;6.564;2022-08-23T03:14:21;23.00;66.10
60455;DHT22;54989;53.398;6.564;2022-08-23T03:16:51;23.00;66.10
60455;DHT22;54989;53.398;6.564;2022-08-23T03:19:22;23.00;66.10
60455;DHT22;54989;53.398;6.564;2022-08-23T03:21:50;23.00;66.20
60455;DHT22;54989;53.398;6.564;2022-08-23T03:24:19;22.90;66.20
60455;DHT22;54989;53.398;6.564;2022-08-23T03:26:46;22.90;66.20
60455;DHT22;54989;53.398;6.564;2022-08-23T03:29:15;22.90;66.10
60455;DHT22;54989;53.398;6.564;2022-08-23T03:32:01;22.90;66.20
60455;DHT22;54989;53.398;6.564;2022-08-23T03:34:33;22.90;66.20
60455;DHT22;54989;53.398;6.564;2022-08-23T03:37:01;22.90;66.20
60455;DHT22;54989;53.398;6.564;2022-08-23T03:39:29;22.90;66.10
60455;DHT22;54989;53.398;6.564;2022-08-23T03:41:58;22.90;66.10
60455;DHT22;54989;53.398;6.564;2022-08-23T03:44:30;22.90;66.10
60455;DHT22;54989;53.398;6.564;2022-08-23T03:46:57;22.90;66.20
60455;DHT22;54989;53.398;6.564;2022-08-23T03:49:26;22.90;66.20
60455;DHT22;54989;53.398;6.564;2022-08-23T03:51:55;22.90;66.10
60455;DHT22;54989;53.398;6.564;2022-08-23T03:54:23;22.90;66.20
60455;DHT22;54989;53.398;6.564;2022-08-23T03:56:59;22.90;66.20
60455;DHT22;54989;53.398;6.564;2022-08-23T03:59:33;22.90;66.20
60455;DHT22;54989;53.398;6.564;2022-08-23T04:02:03;22.90;66.20
60455;DHT22;54989;53.398;6.564;2022-08-23T04:04:31;22.90;66.20
60455;DHT22;54989;53.398;6.564;2022-08-23T04:07:19;22.90;66.20
60455;DHT22;54989;53.398;6.564;2022-08-23T04:09:50;22.80;66.10
60455;DHT22;54989;53.398;6.564;2022-08-23T04:12:24;22.90;66.20
60455;DHT22;54989;53.398;6.564;2022-08-23T04:14:51;22.90;66.20
60455;DHT22;54989;53.398;6.564;2022-08-23T04:17:21;22.90;66.20
60455;DHT22;54989;53.398;6.564;2022-08-23T04:19:50;22.90;66.20
60455;DHT22;54989;53.398;6.564;2022-08-23T04:22:19;22.80;66.10
60455;DHT22;54989;53.398;6.564;2022-08-23T04:24:47;22.90;66.20
60455;DHT22;54989;53.398;6.564;2022-08-23T04:27:15;22.80;66.10
60455;DHT22;54989;53.398;6.564;2022-08-23T04:29:46;22.80;66.10
60455;DHT22;54989;53.398;6.564;2022-08-23T04:32:14;22.80;66.20
60455;DHT22;54989;53.398;6.564;2022-08-23T04:34:56;22.80;66.10
60455;DHT22;54989;53.398;6.564;2022-08-23T04:37:24;22.80;66.20
60455;DHT22;54989;53.398;6.564;2022-08-23T04:39:52;22.80;66.10
60455;DHT22;54989;53.398;6.564;2022-08-23T04:42:41;22.80;66.10
60455;DHT22;54989;53.398;6.564;2022-08-23T04:45:10;22.80;66.20
60455;DHT22;54989;53.398;6.564;2022-08-23T04:47:41;22.80;66.10
60455;DHT22;54989;53.398;6.564;2022-08-23T04:50:11;22.80;66.10
60455;DHT22;54989;53.398;6.564;2022-08-23T04:52:57;22.80;66.10
60455;DHT22;54989;53.398;6.564;2022-08-23T04:55:25;22.80;66.20
60455;DHT22;54989;53.398;6.564;2022-08-23T04:58:06;22.80;66.20
60455;DHT22;54989;53.398;6.564;2022-08-23T05:00:43;22.80;66.20
60455;DHT22;54989;53.398;6.564;2022-08-23T05:03:19;22.70;66.20
60455;DHT22;54989;53.398;6.564;2022-08-23T05:05:47;22.80;66.20
60455;DHT22;54989;53.398;6.564;2022-08-23T05:08:16;22.80;66.20
60455;DHT22;54989;53.398;6.564;2022-08-23T05:10:44;22.80;66.20
60455;DHT22;54989;53.398;6.564;2022-08-23T05:13:13;22.80;66.20
60455;DHT22;54989;53.398;6.564;2022-08-23T05:15:41;22.80;66.10
60455;DHT22;54989;53.398;6.564;2022-08-23T05:18:10;22.70;66.10
60455;DHT22;54989;53.398;6.564;2022-08-23T05:20:39;22.70;66.10
60455;DHT22;54989;53.398;6.564;2022-08-23T05:23:07;22.70;66.10
60455;DHT22;54989;53.398;6.564;2022-08-23T05:25:41;22.70;66.20
60455;DHT22;54989;53.398;6.564;2022-08-23T05:28:36;22.70;66.20
60455;DHT22;54989;53.398;6.564;2022-08-23T05:31:13;22.70;66.10
60455;DHT22;54989;53.398;6.564;2022-08-23T05:33:46;22.70;66.20
60455;DHT22;54989;53.398;6.564;2022-08-23T05:36:18;22.70;66.20
60455;DHT22;54989;53.398;6.564;2022-08-23T05:38:46;22.70;66.20
60455;DHT22;54989;53.398;6.564;2022-08-23T05:41:15;22.70;66.20
60455;DHT22;54989;53.398;6.564;2022-08-23T05:43:44;22.70;66.20
60455;DHT22;54989;53.398;6.564;2022-08-23T05:46:21;22.70;66.20
60455;DHT22;54989;53.398;6.564;2022-08-23T05:49:15;22.70;66.20
60455;DHT22;54989;53.398;6.564;2022-08-23T05:51:48;22.70;66.20
60455;DHT22;54989;53.398;6.564;2022-08-23T05:54:18;22.70;66.20
60455;DHT22;54989;53.398;6.564;2022-08-23T05:56:58;22.70;66.20
60455;DHT22;54989;53.398;6.564;2022-08-23T05:59:26;22.70;66.30
60455;DHT22;54989;53.398;6.564;2022-08-23T06:01:54;22.70;66.20
60455;DHT22;54989;53.398;6.564;2022-08-23T06:04:21;22.70;66.30
60455;DHT22;54989;53.398;6.564;2022-08-23T06:06:49;22.70;66.20
60455;DHT22;54989;53.398;6.564;2022-08-23T06:09:17;22.70;66.20
60455;DHT22;54989;53.398;6.564;2022-08-23T06:11:46;22.70;66.20
60455;DHT22;54989;53.398;6.564;2022-08-23T06:14:15;22.70;66.30
60455;DHT22;54989;53.398;6.564;2022-08-23T06:16:46;22.70;66.20
60455;DHT22;54989;53.398;6.564;2022-08-23T06:19:18;22.70;66.30
60455;DHT22;54989;53.398;6.564;2022-08-23T06:21:46;22.60;66.30
60455;DHT22;54989;53.398;6.564;2022-08-23T06:24:18;22.70;66.30
60455;DHT22;54989;53.398;6.564;2022-08-23T06:26:59;22.70;66.30
60455;DHT22;54989;53.398;6.564;2022-08-23T06:29:27;22.70;66.30
60455;DHT22;54989;53.398;6.564;2022-08-23T06:32:13;22.70;66.40
60455;DHT22;54989;53.398;6.564;2022-08-23T06:35:00;22.70;66.40
60455;DHT22;54989;53.398;6.564;2022-08-23T06:38:04;22.70;66.40
60455;DHT22;54989;53.398;6.564;2022-08-23T06:40:47;22.60;66.40
60455;DHT22;54989;53.398;6.564;2022-08-23T06:43:24;22.60;66.40
60455;DHT22;54989;53.398;6.564;2022-08-23T06:48:44;22.60;66.40
60455;DHT22;54989;53.398;6.564;2022-08-23T06:51:23;22.60;66.40
60455;DHT22;54989;53.398;6.564;2022-08-23T06:54:13;22.60;66.50
60455;DHT22;54989;53.398;6.564;2022-08-23T06:56:57;22.60;66.50
60455;DHT22;54989;53.398;6.564;2022-08-23T06:59:40;22.60;66.50
60455;DHT22;54989;53.398;6.564;2022-08-23T07:02:26;22.60;66.50
60455;DHT22;54989;53.398;6.564;2022-08-23T07:04:56;22.60;66.50
60455;DHT22;54989;53.398;6.564;2022-08-23T07:07:35;22.60;66.50
60455;DHT22;54989;53.398;6.564;2022-08-23T07:10:12;22.60;66.60
60455;DHT22;54989;53.398;6.564;2022-08-23T07:12:41;22.60;66.70
60455;DHT22;54989;53.398;6.564;2022-08-23T07:15:12;22.60;66.50
60455;DHT22;54989;53.398;6.564;2022-08-23T07:17:43;22.60;66.50
60455;DHT22;54989;53.398;6.564;2022-08-23T07:20:11;22.60;66.50
60455;DHT22;54989;53.398;6.564;2022-08-23T07:22:41;22.60;66.60
60455;DHT22;54989;53.398;6.564;2022-08-23T07:25:10;22.60;66.50
60455;DHT22;54989;53.398;6.564;2022-08-23T07:27:38;22.60;66.50
60455;DHT22;54989;53.398;6.564;2022-08-23T07:30:08;22.60;66.50
60455;DHT22;54989;53.398;6.564;2022-08-23T07:32:38;22.60;66.40
60455;DHT22;54989;53.398;6.564;2022-08-23T07:35:17;22.60;66.50
60455;DHT22;54989;53.398;6.564;2022-08-23T07:37:49;22.60;66.40
60455;DHT22;54989;53.398;6.564;2022-08-23T07:40:17;22.60;66.50
60455;DHT22;54989;53.398;6.564;2022-08-23T07:42:49;22.60;66.40
60455;DHT22;54989;53.398;6.564;2022-08-23T07:45:17;22.60;66.40
60455;DHT22;54989;53.398;6.564;2022-08-23T07:47:52;22.60;66.40
60455;DHT22;54989;53.398;6.564;2022-08-23T07:50:22;22.60;66.40
60455;DHT22;54989;53.398;6.564;2022-08-23T07:52:57;22.60;66.40
60455;DHT22;54989;53.398;6.564;2022-08-23T07:55:25;22.60;66.50
60455;DHT22;54989;53.398;6.564;2022-08-23T07:58:12;22.70;66.50
60455;DHT22;54989;53.398;6.564;2022-08-23T08:00:53;22.70;66.50
60455;DHT22;54989;53.398;6.564;2022-08-23T08:03:34;22.70;66.50
60455;DHT22;54989;53.398;6.564;2022-08-23T08:08:58;22.70;66.50
60455;DHT22;54989;53.398;6.564;2022-08-23T08:11:28;22.70;66.40
60455;DHT22;54989;53.398;6.564;2022-08-23T08:14:06;22.70;66.50
60455;DHT22;54989;53.398;6.564;2022-08-23T08:16:46;22.70;66.40
60455;DHT22;54989;53.398;6.564;2022-08-23T08:19:20;22.70;66.40
60455;DHT22;54989;53.398;6.564;2022-08-23T08:22:03;22.70;66.40
60455;DHT22;54989;53.398;6.564;2022-08-23T08:25:10;22.80;66.40
60455;DHT22;54989;53.398;6.564;2022-08-23T08:27:41;22.80;66.40
60455;DHT22;54989;53.398;6.564;2022-08-23T08:30:09;22.80;66.30
60455;DHT22;54989;53.398;6.564;2022-08-23T08:32:38;22.80;66.30
60455;DHT22;54989;53.398;6.564;2022-08-23T08:35:14;22.80;66.30
60455;DHT22;54989;53.398;6.564;2022-08-23T08:37:42;22.80;66.30
60455;DHT22;54989;53.398;6.564;2022-08-23T08:40:10;22.80;66.30
60455;DHT22;54989;53.398;6.564;2022-08-23T08:42:52;22.80;66.30
60455;DHT22;54989;53.398;6.564;2022-08-23T08:45:28;22.90;66.30
60455;DHT22;54989;53.398;6.564;2022-08-23T08:48:07;22.90;66.30
60455;DHT22;54989;53.398;6.564;2022-08-23T08:51:00;22.80;66.20
60455;DHT22;54989;53.398;6.564;2022-08-23T08:53:37;22.90;66.20
60455;DHT22;54989;53.398;6.564;2022-08-23T08:59:07;22.90;66.20
60455;DHT22;54989;53.398;6.564;2022-08-23T09:01:37;22.90;66.20
60455;DHT22;54989;53.398;6.564;2022-08-23T09:04:06;22.90;66.20
60455;DHT22;54989;53.398;6.564;2022-08-23T09:07:11;22.90;66.10
60455;DHT22;54989;53.398;6.564;2022-08-23T09:09:52;23.00;66.20
60455;DHT22;54989;53.398;6.564;2022-08-23T09:12:53;23.00;66.30
60455;DHT22;54989;53.398;6.564;2022-08-23T09:15:43;23.00;66.30
60455;DHT22;54989;53.398;6.564;2022-08-23T09:18:15;23.00;66.30
60455;DHT22;54989;53.398;6.564;2022-08-23T09:20:46;23.00;66.30
60455;DHT22;54989;53.398;6.564;2022-08-23T09:23:15;23.00;66.10
60455;DHT22;54989;53.398;6.564;2022-08-23T09:25:52;23.00;66.30
60455;DHT22;54989;53.398;6.564;2022-08-23T09:28:25;23.00;66.20
60455;DHT22;54989;53.398;6.564;2022-08-23T09:30:56;23.10;66.30
60455;DHT22;54989;53.398;6.564;2022-08-23T09:36:22;23.10;66.20
60455;DHT22;54989;53.398;6.564;2022-08-23T09:39:01;23.10;66.20
60455;DHT22;54989;53.398;6.564;2022-08-23T09:41:37;23.10;66.20
60455;DHT22;54989;53.398;6.564;2022-08-23T09:44:08;23.10;66.20
60455;DHT22;54989;53.398;6.564;2022-08-23T09:46:37;23.10;66.20
60455;DHT22;54989;53.398;6.564;2022-08-23T09:49:23;23.20;66.20
60455;DHT22;54989;53.398;6.564;2022-08-23T09:51:58;23.20;66.10
60455;DHT22;54989;53.398;6.564;2022-08-23T09:54:33;23.20;66.20
60455;DHT22;54989;53.398;6.564;2022-08-23T09:57:06;23.20;66.20
60455;DHT22;54989;53.398;6.564;2022-08-23T09:59:46;23.20;66.30
60455;DHT22;54989;53.398;6.564;2022-08-23T10:02:33;23.20;66.30
60455;DHT22;54989;53.398;6.564;2022-08-23T10:05:35;23.20;66.30
60455;DHT22;54989;53.398;6.564;2022-08-23T10:08:05;23.20;66.50
60455;DHT22;54989;53.398;6.564;2022-08-23T10:10:48;23.20;66.50
60455;DHT22;54989;53.398;6.564;2022-08-23T10:13:25;23.30;66.30
60455;DHT22;54989;53.398;6.564;2022-08-23T10:19:09;23.30;66.50
60455;DHT22;54989;53.398;6.564;2022-08-23T10:24:46;23.40;66.70
60455;DHT22;54989;53.398;6.564;2022-08-23T10:30:27;23.40;66.60
60455;DHT22;54989;53.398;6.564;2022-08-23T10:33:15;23.40;66.60
60455;DHT22;54989;53.398;6.564;2022-08-23T10:44:32;23.50;66.30
60455;DHT22;54989;53.398;6.564;2022-08-23T10:49:58;23.50;66.30
60455;DHT22;54989;53.398;6.564;2022-08-23T10:52:35;23.50;66.30
60455;DHT22;54989;53.398;6.564;2022-08-23T10:55:06;23.50;66.10
60455;DHT22;54989;53.398;6.564;2022-08-23T10:57:45;23.50;66.10
60455;DHT22;54989;53.398;6.564;2022-08-23T11:00:21;23.50;66.10
60455;DHT22;54989;53.398;6.564;2022-08-23T11:05:32;23.60;66.00
60455;DHT22;54989;53.398;6.564;2022-08-23T11:08:33;23.70;66.00
60455;DHT22;54989;53.398;6.564;2022-08-23T11:14:33;23.70;65.70
60455;DHT22;54989;53.398;6.564;2022-08-23T11:17:22;23.80;65.80
60455;DHT22;54989;53.398;6.564;2022-08-23T11:19:54;23.70;65.70
60455;DHT22;54989;53.398;6.564;2022-08-23T11:22:33;23.80;65.70
60455;DHT22;54989;53.398;6.564;2022-08-23T11:25:05;23.80;65.60
60455;DHT22;54989;53.398;6.564;2022-08-23T11:27:42;23.80;65.60
60455;DHT22;54989;53.398;6.564;2022-08-23T11:41:23;24.00;65.30
60455;DHT22;54989;53.398;6.564;2022-08-23T11:49:14;24.10;65.30
60455;DHT22;54989;53.398;6.564;2022-08-23T12:00:14;24.20;65.10
60455;DHT22;54989;53.398;6.564;2022-08-23T12:05:26;24.20;65.00
60455;DHT22;54989;53.398;6.564;2022-08-23T12:13:43;24.30;64.90
60455;DHT22;54989;53.398;6.564;2022-08-23T12:23:51;24.30;65.40
60455;DHT22;54989;53.398;6.564;2022-08-23T12:26:27;24.40;64.80
60455;DHT22;54989;53.398;6.564;2022-08-23T12:29:43;24.40;65.00
60455;DHT22;54989;53.398;6.564;2022-08-23T12:34:52;24.50;64.90
60455;DHT22;54989;53.398;6.564;2022-08-23T12:40:07;24.50;65.00
60455;DHT22;54989;53.398;6.564;2022-08-23T12:42:37;24.50;64.90
60455;DHT22;54989;53.398;6.564;2022-08-23T12:45:19;24.60;65.00
60455;DHT22;54989;53.398;6.564;2022-08-23T12:47:59;24.60;65.00
60455;DHT22;54989;53.398;6.564;2022-08-23T12:50:37;24.60;64.90
60455;DHT22;54989;53.398;6.564;2022-08-23T12:53:11;24.60;64.80
60455;DHT22;54989;53.398;6.564;2022-08-23T12:55:42;24.60;64.80
60455;DHT22;54989;53.398;6.564;2022-08-23T12:58:11;24.60;64.70
60455;DHT22;54989;53.398;6.564;2022-08-23T13:00:52;24.70;64.90
60455;DHT22;54989;53.398;6.564;2022-08-23T13:03:24;24.70;64.60
60455;DHT22;54989;53.398;6.564;2022-08-23T13:11:02;24.70;64.60
60455;DHT22;54989;53.398;6.564;2022-08-23T13:13:37;24.70;64.70
60455;DHT22;54989;53.398;6.564;2022-08-23T13:21:43;24.70;64.60
60455;DHT22;54989;53.398;6.564;2022-08-23T13:24:32;24.80;64.70
60455;DHT22;54989;53.398;6.564;2022-08-23T13:32:39;24.80;64.70
60455;DHT22;54989;53.398;6.564;2022-08-23T13:35:39;24.90;64.70
60455;DHT22;54989;53.398;6.564;2022-08-23T13:43:12;24.90;64.50
60455;DHT22;54989;53.398;6.564;2022-08-23T13:45:50;24.90;64.80
60455;DHT22;54989;53.398;6.564;2022-08-23T13:51:18;24.90;64.40
60455;DHT22;54989;53.398;6.564;2022-08-23T13:53:46;24.90;64.60
60455;DHT22;54989;53.398;6.564;2022-08-23T13:56:14;24.90;64.70
60455;DHT22;54989;53.398;6.564;2022-08-23T13:58:42;25.00;64.90
60455;DHT22;54989;53.398;6.564;2022-08-23T14:01:18;25.00;64.90
60455;DHT22;54989;53.398;6.564;2022-08-23T14:03:46;25.00;64.70
60455;DHT22;54989;53.398;6.564;2022-08-23T14:06:14;25.00;64.70
60455;DHT22;54989;53.398;6.564;2022-08-23T14:08:41;25.00;64.60
60455;DHT22;54989;53.398;6.564;2022-08-23T14:11:10;25.00;64.70
60455;DHT22;54989;53.398;6.564;2022-08-23T14:13:37;25.00;64.90
60455;DHT22;54989;53.398;6.564;2022-08-23T14:16:07;25.10;65.00
60455;DHT22;54989;53.398;6.564;2022-08-23T14:18:55;25.10;65.00
60455;DHT22;54989;53.398;6.564;2022-08-23T14:21:43;25.10;64.90
60455;DHT22;54989;53.398;6.564;2022-08-23T14:24:12;25.20;64.90
60455;DHT22;54989;53.398;6.564;2022-08-23T14:26:40;25.20;64.90
60455;DHT22;54989;53.398;6.564;2022-08-23T14:29:19;25.20;65.10
60455;DHT22;54989;53.398;6.564;2022-08-23T14:31:51;25.20;64.50
60455;DHT22;54989;53.398;6.564;2022-08-23T14:34:19;25.20;64.50
60455;DHT22;54989;53.398;6.564;2022-08-23T14:36:47;25.20;64.70
60455;DHT22;54989;53.398;6.564;2022-08-23T14:39:35;25.20;64.70
60455;DHT22;54989;53.398;6.564;2022-08-23T14:42:03;25.20;64.70
60455;DHT22;54989;53.398;6.564;2022-08-23T14:44:32;25.20;64.70
60455;DHT22;54989;53.398;6.564;2022-08-23T14:47:04;25.20;64.70
60455;DHT22;54989;53.398;6.564;2022-08-23T14:49:32;25.20;64.70
60455;DHT22;54989;53.398;6.564;2022-08-23T14:52:00;25.20;64.80
60455;DHT22;54989;53.398;6.564;2022-08-23T14:54:28;25.20;64.70
60455;DHT22;54989;53.398;6.564;2022-08-23T14:56:55;25.20;64.70
60455;DHT22;54989;53.398;6.564;2022-08-23T14:59:23;25.20;64.70
60455;DHT22;54989;53.398;6.564;2022-08-23T15:01:51;25.30;64.80
60455;DHT22;54989;53.398;6.564;2022-08-23T15:04:21;25.20;64.70
60455;DHT22;54989;53.398;6.564;2022-08-23T15:06:49;25.30;64.90
60455;DHT22;54989;53.398;6.564;2022-08-23T15:09:37;25.20;64.80
60455;DHT22;54989;53.398;6.564;2022-08-23T15:12:05;25.20;64.90
60455;DHT22;54989;53.398;6.564;2022-08-23T15:14:52;25.30;64.90
60455;DHT22;54989;53.398;6.564;2022-08-23T15:17:23;25.30;64.90
60455;DHT22;54989;53.398;6.564;2022-08-23T15:19:58;25.30;65.00
60455;DHT22;54989;53.398;6.564;2022-08-23T15:22:25;25.30;65.00
60455;DHT22;54989;53.398;6.564;2022-08-23T15:24:53;25.40;65.00
60455;DHT22;54989;53.398;6.564;2022-08-23T15:27:21;25.40;64.90
60455;DHT22;54989;53.398;6.564;2022-08-23T15:29:49;25.40;64.90
60455;DHT22;54989;53.398;6.564;2022-08-23T15:32:16;25.40;64.80
60455;DHT22;54989;53.398;6.564;2022-08-23T15:34:48;25.40;64.80
60455;DHT22;54989;53.398;6.564;2022-08-23T15:37:19;25.40;64.80
60455;DHT22;54989;53.398;6.564;2022-08-23T15:39:48;25.40;64.90
60455;DHT22;54989;53.398;6.564;2022-08-23T15:42:16;25.40;64.90
60455;DHT22;54989;53.398;6.564;2022-08-23T15:44:47;25.30;65.00
60455;DHT22;54989;53.398;6.564;2022-08-23T15:47:25;25.30;65.00
60455;DHT22;54989;53.398;6.564;2022-08-23T15:49:54;25.30;64.80
60455;DHT22;54989;53.398;6.564;2022-08-23T15:52:21;25.40;64.90
60455;DHT22;54989;53.398;6.564;2022-08-23T15:54:49;25.40;65.00
60455;DHT22;54989;53.398;6.564;2022-08-23T15:57:24;25.40;65.00
60455;DHT22;54989;53.398;6.564;2022-08-23T15:59:55;25.40;65.00
60455;DHT22;54989;53.398;6.564;2022-08-23T16:02:23;25.40;65.00
60455;DHT22;54989;53.398;6.564;2022-08-23T16:04:50;25.40;65.00
60455;DHT22;54989;53.398;6.564;2022-08-23T16:07:18;25.40;64.90
60455;DHT22;54989;53.398;6.564;2022-08-23T16:09:47;25.40;65.10
60455;DHT22;54989;53.398;6.564;2022-08-23T16:12:15;25.40;65.10
60455;DHT22;54989;53.398;6.564;2022-08-23T16:14:42;25.40;65.20
60455;DHT22;54989;53.398;6.564;2022-08-23T16:17:18;25.40;65.20
60455;DHT22;54989;53.398;6.564;2022-08-23T16:19:46;25.40;65.10
60455;DHT22;54989;53.398;6.564;2022-08-23T16:22:15;25.40;65.20
60455;DHT22;54989;53.398;6.564;2022-08-23T16:24:43;25.40;65.20
60455;DHT22;54989;53.398;6.564;2022-08-23T16:27:10;25.30;65.00
60455;DHT22;54989;53.398;6.564;2022-08-23T16:29:38;25.30;65.00
60455;DHT22;54989;53.398;6.564;2022-08-23T16:32:07;25.30;65.80
60455;DHT22;54989;53.398;6.564;2022-08-23T16:34:35;25.40;65.60
60455;DHT22;54989;53.398;6.564;2022-08-23T16:37:04;25.30;65.60
60455;DHT22;54989;53.398;6.564;2022-08-23T16:39:33;25.30;65.60
60455;DHT22;54989;53.398;6.564;2022-08-23T16:42:03;25.40;65.70
60455;DHT22;54989;53.398;6.564;2022-08-23T16:44:32;25.40;65.60
60455;DHT22;54989;53.398;6.564;2022-08-23T16:47:02;25.40;65.60
60455;DHT22;54989;53.398;6.564;2022-08-23T16:49:29;25.40;65.70
60455;DHT22;54989;53.398;6.564;2022-08-23T16:52:00;25.40;65.60
60455;DHT22;54989;53.398;6.564;2022-08-23T16:54:28;25.40;65.60
60455;DHT22;54989;53.398;6.564;2022-08-23T16:56:55;25.40;65.70
60455;DHT22;54989;53.398;6.564;2022-08-23T16:59:23;25.30;65.70
60455;DHT22;54989;53.398;6.564;2022-08-23T17:01:59;25.30;65.70
60455;DHT22;54989;53.398;6.564;2022-08-23T17:04:36;25.30;65.80
60455;DHT22;54989;53.398;6.564;2022-08-23T17:07:04;25.40;65.80
60455;DHT22;54989;53.398;6.564;2022-08-23T17:09:33;25.40;65.70
60455;DHT22;54989;53.398;6.564;2022-08-23T17:12:01;25.40;65.70
60455;DHT22;54989;53.398;6.564;2022-08-23T17:14:29;25.40;65.80
60455;DHT22;54989;53.398;6.564;2022-08-23T17:16:57;25.40;65.60
60455;DHT22;54989;53.398;6.564;2022-08-23T17:19:26;25.40;65.60
60455;DHT22;54989;53.398;6.564;2022-08-23T17:21:53;25.40;65.60
60455;DHT22;54989;53.398;6.564;2022-08-23T17:24:21;25.30;65.50
60455;DHT22;54989;53.398;6.564;2022-08-23T17:26:50;25.30;65.60
60455;DHT22;54989;53.398;6.564;2022-08-23T17:29:17;25.30;65.70
60455;DHT22;54989;53.398;6.564;2022-08-23T17:31:46;25.30;65.60
60455;DHT22;54989;53.398;6.564;2022-08-23T17:34:14;25.30;65.60
60455;DHT22;54989;53.398;6.564;2022-08-23T17:36:47;25.40;65.80
60455;DHT22;54989;53.398;6.564;2022-08-23T17:39:18;25.40;65.70
60455;DHT22;54989;53.398;6.564;2022-08-23T17:41:46;25.40;65.80
60455;DHT22;54989;53.398;6.564;2022-08-23T17:44:14;25.40;65.70
60455;DHT22;54989;53.398;6.564;2022-08-23T17:46:43;25.40;65.50
60455;DHT22;54989;53.398;6.564;2022-08-23T17:49:12;25.40;65.60
60455;DHT22;54989;53.398;6.564;2022-08-23T17:51:40;25.40;65.70
60455;DHT22;54989;53.398;6.564;2022-08-23T17:54:08;25.40;65.70
60455;DHT22;54989;53.398;6.564;2022-08-23T17:56:41;25.40;65.60
60455;DHT22;54989;53.398;6.564;2022-08-23T17:59:18;25.40;65.60
60455;DHT22;54989;53.398;6.564;2022-08-23T18:01:46;25.40;65.80